Terminal Aerodrome Forecast
Issued by NWS North Platte, NE

Home | Current Version | Previous Version | Text Only | Print | Product List | Glossary On
Versions: 1 2 3 4 5 6 7 8 9 10 11 12 13 14 15 16
446
FTUS43 KLBF 181720
TAFLBF
TAF
KLBF 181720Z 1818/1918 28007KT P6SM FEW250
     FM190000 23008KT P6SM FEW250
     FM190300 27004KT P6SM SCT250
     FM190900 32004KT P6SM BKN250
     FM191700 03004KT P6SM FEW250=

USA.gov is the U.S. government's official web portal to all federal, state and local government web resources and services.